sensor_id;sensor_type;location;lat;lon;timestamp;pressure;altitude;pressure_sealevel;temperature;humidity
6198;BME280;3132;42.622;23.328;2023-04-07T00:00:01;92490.38;;;1.71;60.20
6198;BME280;3132;42.622;23.328;2023-04-07T00:02:28;92502.88;;;1.79;60.25
6198;BME280;3132;42.622;23.328;2023-04-07T00:04:54;92480.88;;;1.59;60.88
6198;BME280;3132;42.622;23.328;2023-04-07T00:07:21;92508.78;;;1.79;60.71
6198;BME280;3132;42.622;23.328;2023-04-07T00:09:46;92501.63;;;1.81;59.91
6198;BME280;3132;42.622;23.328;2023-04-07T00:12:12;92481.34;;;1.56;61.86
6198;BME280;3132;42.622;23.328;2023-04-07T00:14:37;92499.56;;;1.67;59.99
6198;BME280;3132;42.622;23.328;2023-04-07T00:17:03;92509.28;;;1.64;60.47
6198;BME280;3132;42.622;23.328;2023-04-07T00:19:28;92491.72;;;1.61;60.01
6198;BME280;3132;42.622;23.328;2023-04-07T00:21:53;92497.34;;;1.58;61.28
6198;BME280;3132;42.622;23.328;2023-04-07T00:24:19;92486.38;;;1.51;62.47
6198;BME280;3132;42.622;23.328;2023-04-07T00:26:45;92499.56;;;1.67;59.48
6198;BME280;3132;42.622;23.328;2023-04-07T00:29:10;92489.28;;;1.67;59.63
6198;BME280;3132;42.622;23.328;2023-04-07T00:31:35;92499.75;;;1.77;59.46
6198;BME280;3132;42.622;23.328;2023-04-07T00:34:01;92480.06;;;1.71;58.87
6198;BME280;3132;42.622;23.328;2023-04-07T00:36:26;92479.84;;;1.60;59.34
6198;BME280;3132;42.622;23.328;2023-04-07T00:38:52;92472.19;;;1.49;61.12
6198;BME280;3132;42.622;23.328;2023-04-07T00:41:18;92493.69;;;1.83;61.07
6198;BME280;3132;42.622;23.328;2023-04-07T00:43:43;92494.13;;;1.80;60.69
6198;BME280;3132;42.622;23.328;2023-04-07T00:46:10;92491.41;;;1.58;60.71
6198;BME280;3132;42.622;23.328;2023-04-07T00:48:35;92493.75;;;1.59;60.13
6198;BME280;3132;42.622;23.328;2023-04-07T00:51:01;92473.63;;;1.45;59.80
6198;BME280;3132;42.622;23.328;2023-04-07T00:53:27;92502.25;;;1.60;60.27
6198;BME280;3132;42.622;23.328;2023-04-07T00:55:53;92492.50;;;1.62;60.19
6198;BME280;3132;42.622;23.328;2023-04-07T00:58:18;92465.69;;;1.46;60.46
6198;BME280;3132;42.622;23.328;2023-04-07T01:01:07;92491.28;;;1.64;60.20
6198;BME280;3132;42.622;23.328;2023-04-07T01:03:38;92491.38;;;1.70;59.17
6198;BME280;3132;42.622;23.328;2023-04-07T01:06:13;92492.25;;;1.63;60.51
6198;BME280;3132;42.622;23.328;2023-04-07T01:11:24;92492.25;;;1.75;58.86
6198;BME280;3132;42.622;23.328;2023-04-07T01:13:52;92492.94;;;1.71;58.80
6198;BME280;3132;42.622;23.328;2023-04-07T01:16:23;92500.09;;;1.68;58.51
6198;BME280;3132;42.622;23.328;2023-04-07T01:18:53;92483.75;;;1.75;58.69
6198;BME280;3132;42.622;23.328;2023-04-07T01:21:21;92477.59;;;1.76;60.01
6198;BME280;3132;42.622;23.328;2023-04-07T01:26:41;92486.66;;;1.78;59.03
6198;BME280;3132;42.622;23.328;2023-04-07T01:31:33;92480.34;;;1.86;58.88
6198;BME280;3132;42.622;23.328;2023-04-07T01:34:01;92483.72;;;1.86;58.22
6198;BME280;3132;42.622;23.328;2023-04-07T01:36:28;92481.84;;;1.82;57.71
6198;BME280;3132;42.622;23.328;2023-04-07T01:38:57;92411.44;;;1.48;58.10
6198;BME280;3132;42.622;23.328;2023-04-07T01:41:23;92476.59;;;2.05;59.57
6198;BME280;3132;42.622;23.328;2023-04-07T01:43:50;92465.81;;;1.91;57.30
6198;BME280;3132;42.622;23.328;2023-04-07T01:46:16;92413.63;;;1.67;56.39
6198;BME280;3132;42.622;23.328;2023-04-07T01:48:42;92464.16;;;2.13;57.73
6198;BME280;3132;42.622;23.328;2023-04-07T01:51:08;92464.28;;;2.07;55.60
6198;BME280;3132;42.622;23.328;2023-04-07T01:53:36;92449.44;;;1.97;55.58
6198;BME280;3132;42.622;23.328;2023-04-07T01:56:03;92462.41;;;2.02;54.96
6198;BME280;3132;42.622;23.328;2023-04-07T01:58:28;92437.34;;;1.98;56.61
6198;BME280;3132;42.622;23.328;2023-04-07T02:00:54;92464.78;;;2.20;55.22
6198;BME280;3132;42.622;23.328;2023-04-07T02:03:23;92464.44;;;2.17;55.89
6198;BME280;3132;42.622;23.328;2023-04-07T02:05:54;92460.22;;;2.11;54.36
6198;BME280;3132;42.622;23.328;2023-04-07T02:08:23;92453.53;;;2.10;55.10
6198;BME280;3132;42.622;23.328;2023-04-07T02:10:51;92459.03;;;2.02;55.62
6198;BME280;3132;42.622;23.328;2023-04-07T02:13:19;92458.47;;;2.00;56.59
6198;BME280;3132;42.622;23.328;2023-04-07T02:15:45;92467.16;;;2.10;56.50
6198;BME280;3132;42.622;23.328;2023-04-07T02:18:13;92461.72;;;2.07;56.73
6198;BME280;3132;42.622;23.328;2023-04-07T02:20:41;92470.66;;;2.04;56.28
6198;BME280;3132;42.622;23.328;2023-04-07T02:23:08;92439.75;;;1.88;56.14
6198;BME280;3132;42.622;23.328;2023-04-07T02:25:34;92461.25;;;2.10;57.29
6198;BME280;3132;42.622;23.328;2023-04-07T02:28:02;92468.03;;;2.16;55.84
6198;BME280;3132;42.622;23.328;2023-04-07T02:30:28;92460.78;;;2.13;56.31
6198;BME280;3132;42.622;23.328;2023-04-07T02:32:53;92457.75;;;2.16;55.62
6198;BME280;3132;42.622;23.328;2023-04-07T02:35:19;92456.19;;;2.15;56.20
6198;BME280;3132;42.622;23.328;2023-04-07T02:37:45;92454.63;;;2.14;56.17
6198;BME280;3132;42.622;23.328;2023-04-07T02:40:11;92447.91;;;2.13;55.12
6198;BME280;3132;42.622;23.328;2023-04-07T02:42:37;92465.72;;;2.31;55.20
6198;BME280;3132;42.622;23.328;2023-04-07T02:45:03;92469.00;;;2.26;55.71
6198;BME280;3132;42.622;23.328;2023-04-07T02:47:29;92462.44;;;2.35;56.91
6198;BME280;3132;42.622;23.328;2023-04-07T02:49:54;92456.53;;;2.35;56.25
6198;BME280;3132;42.622;23.328;2023-04-07T02:52:20;92452.75;;;2.26;55.02
6198;BME280;3132;42.622;23.328;2023-04-07T02:54:45;92382.09;;;1.89;55.62
6198;BME280;3132;42.622;23.328;2023-04-07T02:57:11;92464.03;;;2.36;55.75
6198;BME280;3132;42.622;23.328;2023-04-07T02:59:37;92418.19;;;2.05;57.98
6198;BME280;3132;42.622;23.328;2023-04-07T03:02:03;92478.22;;;2.39;55.94
6198;BME280;3132;42.622;23.328;2023-04-07T03:04:28;92473.78;;;2.34;55.32
6198;BME280;3132;42.622;23.328;2023-04-07T03:06:54;92470.59;;;2.44;56.61
6198;BME280;3132;42.622;23.328;2023-04-07T03:09:20;92487.28;;;2.41;56.07
6198;BME280;3132;42.622;23.328;2023-04-07T03:11:46;92446.84;;;2.25;56.10
6198;BME280;3132;42.622;23.328;2023-04-07T03:14:11;92471.69;;;2.48;56.04
6198;BME280;3132;42.622;23.328;2023-04-07T03:16:36;92476.22;;;2.57;56.89
6198;BME280;3132;42.622;23.328;2023-04-07T03:19:02;92466.59;;;2.36;55.85
6198;BME280;3132;42.622;23.328;2023-04-07T03:21:27;92465.59;;;2.37;55.86
6198;BME280;3132;42.622;23.328;2023-04-07T03:23:53;92490.09;;;2.40;56.08
6198;BME280;3132;42.622;23.328;2023-04-07T03:26:19;92473.31;;;2.37;56.88
6198;BME280;3132;42.622;23.328;2023-04-07T03:28:45;92474.09;;;2.38;56.40
6198;BME280;3132;42.622;23.328;2023-04-07T03:31:11;92481.59;;;2.56;56.42
6198;BME280;3132;42.622;23.328;2023-04-07T03:33:36;92470.22;;;2.52;57.99
6198;BME280;3132;42.622;23.328;2023-04-07T03:36:02;92449.66;;;2.40;55.85
6198;BME280;3132;42.622;23.328;2023-04-07T03:38:27;92474.81;;;2.50;57.87
6198;BME280;3132;42.622;23.328;2023-04-07T03:40:53;92450.13;;;2.37;59.61
6198;BME280;3132;42.622;23.328;2023-04-07T03:43:18;92434.09;;;2.19;57.04
6198;BME280;3132;42.622;23.328;2023-04-07T03:45:43;92460.88;;;2.18;57.03
6198;BME280;3132;42.622;23.328;2023-04-07T03:48:09;92446.31;;;1.95;58.40
6198;BME280;3132;42.622;23.328;2023-04-07T03:50:36;92440.75;;;1.87;59.22
6198;BME280;3132;42.622;23.328;2023-04-07T03:53:01;92422.16;;;1.68;59.23
6198;BME280;3132;42.622;23.328;2023-04-07T03:55:27;92458.00;;;2.03;58.64
6198;BME280;3132;42.622;23.328;2023-04-07T03:57:52;92440.94;;;1.97;58.82
6198;BME280;3132;42.622;23.328;2023-04-07T04:00:18;92463.25;;;2.08;56.94
6198;BME280;3132;42.622;23.328;2023-04-07T04:02:43;92442.94;;;1.95;58.94
6198;BME280;3132;42.622;23.328;2023-04-07T04:05:09;92435.63;;;1.87;57.83
6198;BME280;3132;42.622;23.328;2023-04-07T04:07:34;92463.97;;;2.03;57.92
6198;BME280;3132;42.622;23.328;2023-04-07T04:10:00;92461.00;;;2.11;58.52
6198;BME280;3132;42.622;23.328;2023-04-07T04:12:26;92453.66;;;2.03;57.78
6198;BME280;3132;42.622;23.328;2023-04-07T04:14:51;92469.38;;;2.18;58.32
6198;BME280;3132;42.622;23.328;2023-04-07T04:17:17;92458.56;;;2.05;57.37
6198;BME280;3132;42.622;23.328;2023-04-07T04:19:42;92466.88;;;2.23;57.17
6198;BME280;3132;42.622;23.328;2023-04-07T04:22:07;92445.44;;;2.18;57.45
6198;BME280;3132;42.622;23.328;2023-04-07T04:24:33;92470.41;;;2.34;57.72
6198;BME280;3132;42.622;23.328;2023-04-07T04:26:58;92472.28;;;2.38;55.84
6198;BME280;3132;42.622;23.328;2023-04-07T04:29:23;92469.56;;;2.45;56.02
6198;BME280;3132;42.622;23.328;2023-04-07T04:31:49;92432.25;;;2.31;56.54
6198;BME280;3132;42.622;23.328;2023-04-07T04:34:14;92461.63;;;2.63;57.19
6198;BME280;3132;42.622;23.328;2023-04-07T04:36:40;92488.25;;;2.85;56.23
6198;BME280;3132;42.622;23.328;2023-04-07T04:39:05;92487.56;;;2.89;54.55
6198;BME280;3132;42.622;23.328;2023-04-07T04:41:31;92489.50;;;2.82;55.55
6198;BME280;3132;42.622;23.328;2023-04-07T04:43:56;92480.75;;;2.67;54.05
6198;BME280;3132;42.622;23.328;2023-04-07T04:46:21;92497.78;;;3.01;55.01
6198;BME280;3132;42.622;23.328;2023-04-07T04:48:47;92498.72;;;2.95;54.92
6198;BME280;3132;42.622;23.328;2023-04-07T04:51:12;92496.63;;;2.92;53.53
6198;BME280;3132;42.622;23.328;2023-04-07T04:53:37;92499.66;;;2.89;54.02
6198;BME280;3132;42.622;23.328;2023-04-07T04:56:03;92484.97;;;3.06;53.98
6198;BME280;3132;42.622;23.328;2023-04-07T04:58:28;92503.41;;;2.98;53.89
6198;BME280;3132;42.622;23.328;2023-04-07T05:00:54;92489.59;;;2.87;53.44
6198;BME280;3132;42.622;23.328;2023-04-07T05:03:22;92508.06;;;3.34;53.14
6198;BME280;3132;42.622;23.328;2023-04-07T05:05:48;92510.47;;;3.41;53.80
6198;BME280;3132;42.622;23.328;2023-04-07T05:08:14;92489.88;;;3.46;52.39
6198;BME280;3132;42.622;23.328;2023-04-07T05:10:39;92515.59;;;3.95;53.82
6198;BME280;3132;42.622;23.328;2023-04-07T05:13:05;92512.03;;;4.01;51.49
6198;BME280;3132;42.622;23.328;2023-04-07T05:15:30;92506.44;;;4.09;50.36
6198;BME280;3132;42.622;23.328;2023-04-07T05:17:56;92519.09;;;4.32;50.59
6198;BME280;3132;42.622;23.328;2023-04-07T05:20:21;92515.63;;;4.48;49.31
6198;BME280;3132;42.622;23.328;2023-04-07T05:22:46;92520.31;;;4.03;51.15
6198;BME280;3132;42.622;23.328;2023-04-07T05:25:12;92529.47;;;4.37;50.46
6198;BME280;3132;42.622;23.328;2023-04-07T05:27:37;92522.88;;;4.73;52.76
6198;BME280;3132;42.622;23.328;2023-04-07T05:30:03;92505.69;;;4.35;53.27
6198;BME280;3132;42.622;23.328;2023-04-07T05:32:28;92515.94;;;3.82;56.95
6198;BME280;3132;42.622;23.328;2023-04-07T05:34:54;92522.94;;;4.08;55.00
6198;BME280;3132;42.622;23.328;2023-04-07T05:37:19;92533.94;;;4.68;53.90
6198;BME280;3132;42.622;23.328;2023-04-07T05:39:45;92527.16;;;4.94;52.73
6198;BME280;3132;42.622;23.328;2023-04-07T05:42:10;92529.50;;;4.95;53.64
6198;BME280;3132;42.622;23.328;2023-04-07T05:44:36;92526.69;;;5.29;52.90
6198;BME280;3132;42.622;23.328;2023-04-07T05:47:01;92528.34;;;5.45;51.45
6198;BME280;3132;42.622;23.328;2023-04-07T05:49:30;92498.88;;;5.14;51.89
6198;BME280;3132;42.622;23.328;2023-04-07T05:51:55;92523.25;;;5.18;52.51
6198;BME280;3132;42.622;23.328;2023-04-07T05:54:21;92511.94;;;4.97;52.19
6198;BME280;3132;42.622;23.328;2023-04-07T05:56:46;92530.88;;;5.03;52.54
6198;BME280;3132;42.622;23.328;2023-04-07T05:59:12;92526.06;;;4.85;53.91
6198;BME280;3132;42.622;23.328;2023-04-07T06:01:37;92546.47;;;4.81;54.72
6198;BME280;3132;42.622;23.328;2023-04-07T06:04:03;92515.72;;;4.58;55.62
6198;BME280;3132;42.622;23.328;2023-04-07T06:06:28;92520.88;;;4.32;56.11
6198;BME280;3132;42.622;23.328;2023-04-07T06:08:53;92532.91;;;4.69;55.95
6198;BME280;3132;42.622;23.328;2023-04-07T06:11:19;92513.28;;;4.73;56.84
6198;BME280;3132;42.622;23.328;2023-04-07T06:13:45;92538.38;;;5.05;54.16
6198;BME280;3132;42.622;23.328;2023-04-07T06:16:10;92533.34;;;5.20;53.14
6198;BME280;3132;42.622;23.328;2023-04-07T06:18:36;92541.56;;;5.48;52.29
6198;BME280;3132;42.622;23.328;2023-04-07T06:21:01;92533.59;;;5.18;52.42
6198;BME280;3132;42.622;23.328;2023-04-07T06:23:26;92517.16;;;5.03;52.16
6198;BME280;3132;42.622;23.328;2023-04-07T06:25:52;92540.75;;;5.43;52.18
6198;BME280;3132;42.622;23.328;2023-04-07T06:28:18;92522.13;;;5.46;52.76
6198;BME280;3132;42.622;23.328;2023-04-07T06:30:43;92532.28;;;5.94;50.73
6198;BME280;3132;42.622;23.328;2023-04-07T06:33:09;92529.66;;;5.89;53.02
6198;BME280;3132;42.622;23.328;2023-04-07T06:35:34;92534.66;;;6.10;52.63
6198;BME280;3132;42.622;23.328;2023-04-07T06:38:00;92487.53;;;5.67;52.53
6198;BME280;3132;42.622;23.328;2023-04-07T06:40:26;92521.22;;;6.08;50.50
6198;BME280;3132;42.622;23.328;2023-04-07T06:42:51;92524.44;;;5.84;51.06
6198;BME280;3132;42.622;23.328;2023-04-07T06:45:19;92533.84;;;5.17;54.85
6198;BME280;3132;42.622;23.328;2023-04-07T06:47:44;92533.91;;;5.68;54.27
6198;BME280;3132;42.622;23.328;2023-04-07T06:50:10;92514.63;;;5.86;52.10
6198;BME280;3132;42.622;23.328;2023-04-07T06:52:35;92525.78;;;5.50;52.83
6198;BME280;3132;42.622;23.328;2023-04-07T06:55:01;92545.09;;;5.74;50.90
6198;BME280;3132;42.622;23.328;2023-04-07T06:57:26;92532.91;;;6.26;47.52
6198;BME280;3132;42.622;23.328;2023-04-07T06:59:51;92528.63;;;6.57;46.54
6198;BME280;3132;42.622;23.328;2023-04-07T07:02:17;92539.81;;;6.00;46.51
6198;BME280;3132;42.622;23.328;2023-04-07T07:04:42;92525.78;;;6.58;46.66
6198;BME280;3132;42.622;23.328;2023-04-07T07:07:07;92538.28;;;6.81;44.63
6198;BME280;3132;42.622;23.328;2023-04-07T07:09:33;92528.88;;;6.50;46.06
6198;BME280;3132;42.622;23.328;2023-04-07T07:11:58;92555.41;;;6.10;46.87
6198;BME280;3132;42.622;23.328;2023-04-07T07:14:26;92537.72;;;5.56;46.61
6198;BME280;3132;42.622;23.328;2023-04-07T07:16:51;92548.47;;;5.79;47.34
6198;BME280;3132;42.622;23.328;2023-04-07T07:19:16;92533.63;;;5.60;47.47
6198;BME280;3132;42.622;23.328;2023-04-07T07:21:42;92509.25;;;5.97;47.17
6198;BME280;3132;42.622;23.328;2023-04-07T07:24:07;92543.09;;;6.37;45.47
6198;BME280;3132;42.622;23.328;2023-04-07T07:26:33;92534.84;;;6.50;46.37
6198;BME280;3132;42.622;23.328;2023-04-07T07:28:58;92545.38;;;6.24;45.77
6198;BME280;3132;42.622;23.328;2023-04-07T07:31:23;92551.09;;;6.31;45.53
6198;BME280;3132;42.622;23.328;2023-04-07T07:33:49;92563.06;;;6.42;45.42
6198;BME280;3132;42.622;23.328;2023-04-07T07:36:16;92530.94;;;6.48;44.91
6198;BME280;3132;42.622;23.328;2023-04-07T07:38:41;92550.97;;;6.78;44.80
6198;BME280;3132;42.622;23.328;2023-04-07T07:41:07;92553.88;;;7.01;45.11
6198;BME280;3132;42.622;23.328;2023-04-07T07:43:32;92576.06;;;6.47;45.08
6198;BME280;3132;42.622;23.328;2023-04-07T07:45:58;92587.13;;;7.14;44.46
6198;BME280;3132;42.622;23.328;2023-04-07T07:48:23;92590.69;;;6.93;44.57
6198;BME280;3132;42.622;23.328;2023-04-07T07:50:49;92590.00;;;7.53;43.20
6198;BME280;3132;42.622;23.328;2023-04-07T07:53:16;92593.59;;;7.32;43.69
6198;BME280;3132;42.622;23.328;2023-04-07T07:55:41;92586.72;;;6.61;43.21
6198;BME280;3132;42.622;23.328;2023-04-07T07:58:06;92569.59;;;6.54;44.34
6198;BME280;3132;42.622;23.328;2023-04-07T08:00:32;92583.72;;;7.09;44.36
6198;BME280;3132;42.622;23.328;2023-04-07T08:02:57;92564.78;;;7.13;43.16
6198;BME280;3132;42.622;23.328;2023-04-07T08:05:23;92586.88;;;7.56;42.15
6198;BME280;3132;42.622;23.328;2023-04-07T08:07:48;92585.56;;;7.43;43.17
6198;BME280;3132;42.622;23.328;2023-04-07T08:10:14;92595.44;;;7.76;41.90
6198;BME280;3132;42.622;23.328;2023-04-07T08:12:39;92554.91;;;7.70;40.58
6198;BME280;3132;42.622;23.328;2023-04-07T08:15:05;92578.81;;;7.52;41.85
6198;BME280;3132;42.622;23.328;2023-04-07T08:17:34;92577.28;;;7.51;41.53
6198;BME280;3132;42.622;23.328;2023-04-07T08:19:59;92564.50;;;8.74;39.88
6198;BME280;3132;42.622;23.328;2023-04-07T08:22:25;92583.88;;;8.53;39.92
6198;BME280;3132;42.622;23.328;2023-04-07T08:24:50;92556.66;;;8.84;40.23
6198;BME280;3132;42.622;23.328;2023-04-07T08:27:16;92581.09;;;8.88;38.78
6198;BME280;3132;42.622;23.328;2023-04-07T08:29:41;92580.66;;;7.72;40.60
6198;BME280;3132;42.622;23.328;2023-04-07T08:32:06;92557.00;;;7.58;40.35
6198;BME280;3132;42.622;23.328;2023-04-07T08:34:32;92570.34;;;8.41;43.90
6198;BME280;3132;42.622;23.328;2023-04-07T08:36:57;92561.00;;;8.45;40.14
6198;BME280;3132;42.622;23.328;2023-04-07T08:39:22;92577.59;;;9.79;39.57
6198;BME280;3132;42.622;23.328;2023-04-07T08:41:50;92561.66;;;9.14;38.13
6198;BME280;3132;42.622;23.328;2023-04-07T08:44:16;92565.56;;;7.64;40.46
6198;BME280;3132;42.622;23.328;2023-04-07T08:46:42;92575.06;;;8.39;40.49
6198;BME280;3132;42.622;23.328;2023-04-07T08:49:10;92562.72;;;7.45;42.25
6198;BME280;3132;42.622;23.328;2023-04-07T08:51:44;92569.69;;;7.90;42.64
6198;BME280;3132;42.622;23.328;2023-04-07T08:54:12;92551.53;;;7.15;42.30
6198;BME280;3132;42.622;23.328;2023-04-07T08:56:39;92562.72;;;7.25;43.52
6198;BME280;3132;42.622;23.328;2023-04-07T08:59:10;92581.19;;;7.44;42.22
6198;BME280;3132;42.622;23.328;2023-04-07T09:01:35;92567.91;;;7.55;42.51
6198;BME280;3132;42.622;23.328;2023-04-07T09:04:02;92586.34;;;7.29;42.48
6198;BME280;3132;42.622;23.328;2023-04-07T09:06:32;92583.97;;;8.07;41.22
6198;BME280;3132;42.622;23.328;2023-04-07T09:08:59;92584.25;;;7.26;41.96
6198;BME280;3132;42.622;23.328;2023-04-07T09:11:26;92576.66;;;8.14;41.70
6198;BME280;3132;42.622;23.328;2023-04-07T09:13:51;92550.88;;;8.28;41.04
6198;BME280;3132;42.622;23.328;2023-04-07T09:16:17;92569.06;;;8.97;40.73
6198;BME280;3132;42.622;23.328;2023-04-07T09:18:42;92564.44;;;8.15;40.78
6198;BME280;3132;42.622;23.328;2023-04-07T09:21:08;92553.19;;;8.45;41.76
6198;BME280;3132;42.622;23.328;2023-04-07T09:23:38;92547.34;;;8.68;41.42
6198;BME280;3132;42.622;23.328;2023-04-07T09:28:43;92578.75;;;9.30;38.85
6198;BME280;3132;42.622;23.328;2023-04-07T09:31:09;92566.94;;;8.50;39.69
6198;BME280;3132;42.622;23.328;2023-04-07T09:33:34;92577.63;;;9.02;39.58
6198;BME280;3132;42.622;23.328;2023-04-07T09:36:01;92586.47;;;8.48;40.66
6198;BME280;3132;42.622;23.328;2023-04-07T09:38:35;92584.97;;;8.11;41.02
6198;BME280;3132;42.622;23.328;2023-04-07T09:43:30;92574.09;;;7.94;41.68
6198;BME280;3132;42.622;23.328;2023-04-07T09:46:12;92560.13;;;7.20;43.30
6198;BME280;3132;42.622;23.328;2023-04-07T09:48:38;92577.78;;;7.68;43.07
6198;BME280;3132;42.622;23.328;2023-04-07T09:51:22;92588.44;;;7.62;43.37
6198;BME280;3132;42.622;23.328;2023-04-07T09:53:50;92577.78;;;7.73;43.46
6198;BME280;3132;42.622;23.328;2023-04-07T09:56:17;92587.66;;;7.66;43.63
6198;BME280;3132;42.622;23.328;2023-04-07T09:58:45;92592.84;;;7.31;44.72
6198;BME280;3132;42.622;23.328;2023-04-07T10:01:12;92582.69;;;7.35;44.87
6198;BME280;3132;42.622;23.328;2023-04-07T10:03:38;92591.16;;;8.41;43.11
6198;BME280;3132;42.622;23.328;2023-04-07T10:06:05;92568.84;;;8.09;42.02
6198;BME280;3132;42.622;23.328;2023-04-07T10:08:32;92589.91;;;8.18;41.19
6198;BME280;3132;42.622;23.328;2023-04-07T10:10:59;92590.78;;;7.73;43.28
6198;BME280;3132;42.622;23.328;2023-04-07T10:13:27;92594.09;;;8.09;42.39
6198;BME280;3132;42.622;23.328;2023-04-07T10:15:53;92587.38;;;7.83;43.96
6198;BME280;3132;42.622;23.328;2023-04-07T10:18:20;92561.28;;;8.92;40.59
6198;BME280;3132;42.622;23.328;2023-04-07T10:20:47;92570.94;;;8.17;41.76
6198;BME280;3132;42.622;23.328;2023-04-07T10:23:36;92590.16;;;8.27;41.95
6198;BME280;3132;42.622;23.328;2023-04-07T10:26:05;92550.00;;;8.58;41.57
6198;BME280;3132;42.622;23.328;2023-04-07T10:28:32;92569.06;;;8.43;42.43
6198;BME280;3132;42.622;23.328;2023-04-07T10:30:59;92582.31;;;8.47;41.80
6198;BME280;3132;42.622;23.328;2023-04-07T10:33:51;92596.94;;;8.28;43.27
6198;BME280;3132;42.622;23.328;2023-04-07T10:36:18;92597.91;;;8.52;43.16
6198;BME280;3132;42.622;23.328;2023-04-07T10:44:05;92607.16;;;7.64;43.34
6198;BME280;3132;42.622;23.328;2023-04-07T10:49:16;92596.78;;;8.78;42.06
6198;BME280;3132;42.622;23.328;2023-04-07T10:51:41;92604.09;;;9.19;41.54
6198;BME280;3132;42.622;23.328;2023-04-07T10:59:32;92613.09;;;7.44;42.74
6198;BME280;3132;42.622;23.328;2023-04-07T11:04:46;92597.06;;;8.71;41.76
6198;BME280;3132;42.622;23.328;2023-04-07T11:07:13;92610.47;;;8.25;43.55
6198;BME280;3132;42.622;23.328;2023-04-07T11:09:42;92612.03;;;8.00;44.49
6198;BME280;3132;42.622;23.328;2023-04-07T11:12:08;92602.69;;;7.84;45.78
6198;BME280;3132;42.622;23.328;2023-04-07T11:14:46;92620.06;;;8.19;46.46
6198;BME280;3132;42.622;23.328;2023-04-07T11:17:13;92615.34;;;8.46;46.21
6198;BME280;3132;42.622;23.328;2023-04-07T11:19:52;92620.31;;;8.43;44.68
6198;BME280;3132;42.622;23.328;2023-04-07T11:22:18;92575.16;;;7.83;45.18
6198;BME280;3132;42.622;23.328;2023-04-07T11:24:45;92595.94;;;7.93;46.44
6198;BME280;3132;42.622;23.328;2023-04-07T11:27:11;92616.19;;;8.06;48.18
6198;BME280;3132;42.622;23.328;2023-04-07T11:29:37;92597.22;;;8.26;47.75
6198;BME280;3132;42.622;23.328;2023-04-07T11:32:03;92619.16;;;8.74;45.22
6198;BME280;3132;42.622;23.328;2023-04-07T11:34:29;92614.34;;;8.22;46.51
6198;BME280;3132;42.622;23.328;2023-04-07T11:36:56;92583.97;;;8.02;46.46
6198;BME280;3132;42.622;23.328;2023-04-07T11:39:25;92610.97;;;8.95;44.76
6198;BME280;3132;42.622;23.328;2023-04-07T11:41:57;92607.28;;;8.48;46.14
6198;BME280;3132;42.622;23.328;2023-04-07T11:44:22;92604.16;;;8.51;43.55
6198;BME280;3132;42.622;23.328;2023-04-07T11:49:19;92613.06;;;8.25;46.24
6198;BME280;3132;42.622;23.328;2023-04-07T11:51:45;92598.50;;;8.08;45.18
6198;BME280;3132;42.622;23.328;2023-04-07T11:54:11;92584.97;;;8.27;45.49
6198;BME280;3132;42.622;23.328;2023-04-07T11:56:46;92605.22;;;8.35;46.11
6198;BME280;3132;42.622;23.328;2023-04-07T11:59:22;92586.59;;;7.72;45.83
6198;BME280;3132;42.622;23.328;2023-04-07T12:01:48;92607.31;;;8.17;47.31
6198;BME280;3132;42.622;23.328;2023-04-07T12:04:14;92587.56;;;8.27;47.25
6198;BME280;3132;42.622;23.328;2023-04-07T12:06:41;92612.00;;;8.15;47.80
6198;BME280;3132;42.622;23.328;2023-04-07T12:09:24;92611.22;;;8.30;48.22
6198;BME280;3132;42.622;23.328;2023-04-07T12:11:53;92586.59;;;7.72;49.20
6198;BME280;3132;42.622;23.328;2023-04-07T12:14:19;92592.81;;;7.81;49.64
6198;BME280;3132;42.622;23.328;2023-04-07T12:16:45;92596.94;;;8.12;49.16
6198;BME280;3132;42.622;23.328;2023-04-07T12:19:11;92580.38;;;7.63;49.99
6198;BME280;3132;42.622;23.328;2023-04-07T12:21:37;92622.69;;;7.94;48.62
6198;BME280;3132;42.622;23.328;2023-04-07T12:24:02;92615.69;;;7.89;50.99
6198;BME280;3132;42.622;23.328;2023-04-07T12:26:28;92621.91;;;8.18;49.56
6198;BME280;3132;42.622;23.328;2023-04-07T12:28:53;92622.94;;;8.28;49.12
6198;BME280;3132;42.622;23.328;2023-04-07T12:31:19;92620.09;;;8.29;48.45
6198;BME280;3132;42.622;23.328;2023-04-07T12:33:44;92595.94;;;7.53;49.38
6198;BME280;3132;42.622;23.328;2023-04-07T12:36:10;92594.13;;;7.69;49.58
6198;BME280;3132;42.622;23.328;2023-04-07T12:38:36;92628.09;;;8.53;48.37
6198;BME280;3132;42.622;23.328;2023-04-07T12:41:02;92595.94;;;7.88;48.97
6198;BME280;3132;42.622;23.328;2023-04-07T12:43:30;92605.56;;;7.98;49.06
6198;BME280;3132;42.622;23.328;2023-04-07T12:45:56;92612.53;;;8.17;48.81
6198;BME280;3132;42.622;23.328;2023-04-07T12:48:22;92621.94;;;7.93;48.61
6198;BME280;3132;42.622;23.328;2023-04-07T12:50:48;92628.16;;;7.97;50.10
6198;BME280;3132;42.622;23.328;2023-04-07T12:53:14;92608.41;;;8.01;49.59
6198;BME280;3132;42.622;23.328;2023-04-07T12:55:39;92626.34;;;7.93;49.71
6198;BME280;3132;42.622;23.328;2023-04-07T12:58:06;92627.13;;;7.83;49.45
6198;BME280;3132;42.622;23.328;2023-04-07T13:00:31;92614.16;;;7.48;49.76
6198;BME280;3132;42.622;23.328;2023-04-07T13:02:57;92603.75;;;7.58;51.01
6198;BME280;3132;42.622;23.328;2023-04-07T13:05:22;92634.16;;;7.88;50.19
6198;BME280;3132;42.622;23.328;2023-04-07T13:07:48;92636.97;;;8.27;49.28
6198;BME280;3132;42.622;23.328;2023-04-07T13:10:13;92620.84;;;8.14;49.02
6198;BME280;3132;42.622;23.328;2023-04-07T13:12:39;92628.41;;;8.11;49.94
6198;BME280;3132;42.622;23.328;2023-04-07T13:15:05;92618.31;;;7.74;48.89
6198;BME280;3132;42.622;23.328;2023-04-07T13:17:31;92623.50;;;7.74;50.47
6198;BME280;3132;42.622;23.328;2023-04-07T13:19:57;92608.91;;;8.08;49.74
6198;BME280;3132;42.622;23.328;2023-04-07T13:22:23;92632.25;;;8.44;49.84
6198;BME280;3132;42.622;23.328;2023-04-07T13:24:48;92636.22;;;8.26;49.65
6198;BME280;3132;42.622;23.328;2023-04-07T13:27:13;92629.94;;;8.22;49.77
6198;BME280;3132;42.622;23.328;2023-04-07T13:29:39;92628.69;;;7.89;50.63
6198;BME280;3132;42.622;23.328;2023-04-07T13:32:09;92635.97;;;7.87;50.06
6198;BME280;3132;42.622;23.328;2023-04-07T13:34:37;92637.50;;;8.03;51.87
6198;BME280;3132;42.622;23.328;2023-04-07T13:37:03;92617.53;;;7.64;50.76
6198;BME280;3132;42.622;23.328;2023-04-07T13:39:30;92649.47;;;8.14;49.73
6198;BME280;3132;42.622;23.328;2023-04-07T13:41:55;92644.25;;;8.35;50.07
6198;BME280;3132;42.622;23.328;2023-04-07T13:44:25;92642.44;;;8.00;51.07
6198;BME280;3132;42.622;23.328;2023-04-07T13:46:52;92626.13;;;7.59;51.30
6198;BME280;3132;42.622;23.328;2023-04-07T13:49:18;92658.84;;;7.85;51.20